CFG3DJ EDDF-LFPG
Flight info
| Callsign | CFG3DJ |
|---|---|
| Flight time | 0h 37m |
| Altitude | 24000 |
| Route | SOBRA2L/18 SOBRA Y180 DIK UN857 TOLVU/N0405F230 DCT RAPOR DCT VEDUS |
| Aircraft | A320/M-SDE3FGHIRWY/LB1 |
Departure
| Time | 2026-05-06 17:44 |
|---|---|
| Airport | Frankfurt Main Airport (EDDF) |
Arrival
| Time | 2026-05-06 18:21 |
|---|---|
| Airport | Charles de Gaulle International Airport (LFPG) |
| Time | Latitude | Longitude | Altitude | Speed | Heading |
|---|---|---|---|---|---|
| 2026-05-06 17:19 | 50.03289 | 8.58066 | 365 ft | 0 kts | 250° |
| 2026-05-06 17:31 | 50.03290 | 8.58069 | 363 ft | 2 kts | 250° |
| 2026-05-06 17:31 | 50.03299 | 8.58107 | 359 ft | 4 kts | 250° |
| 2026-05-06 17:31 | 50.03307 | 8.58139 | 360 ft | 3 kts | 251° |
| 2026-05-06 17:31 | 50.03311 | 8.58179 | 356 ft | 4 kts | 285° |
| 2026-05-06 17:32 | 50.03299 | 8.58214 | 365 ft | 4 kts | 321° |
| 2026-05-06 17:32 | 50.03276 | 8.58233 | 359 ft | 4 kts | 350° |
| 2026-05-06 17:32 | 50.03250 | 8.58233 | 364 ft | 3 kts | 2° |
| 2026-05-06 17:32 | 50.03247 | 8.58233 | 363 ft | 0 kts | 2° |
| 2026-05-06 17:35 | 50.03287 | 8.58226 | 360 ft | 12 kts | 343° |
| 2026-05-06 17:35 | 50.03372 | 8.58178 | 356 ft | 14 kts | 340° |
| 2026-05-06 17:35 | 50.03462 | 8.58127 | 363 ft | 12 kts | 340° |
| 2026-05-06 17:36 | 50.03515 | 8.58096 | 361 ft | 0 kts | 339° |
| 2026-05-06 17:36 | 50.03542 | 8.58079 | 361 ft | 12 kts | 332° |
| 2026-05-06 17:36 | 50.03547 | 8.57925 | 364 ft | 17 kts | 251° |
| 2026-05-06 17:36 | 50.03502 | 8.57736 | 362 ft | 20 kts | 248° |
| 2026-05-06 17:37 | 50.03451 | 8.57522 | 355 ft | 22 kts | 251° |
| 2026-05-06 17:37 | 50.03397 | 8.57291 | 358 ft | 23 kts | 248° |
| 2026-05-06 17:37 | 50.03334 | 8.57048 | 353 ft | 25 kts | 248° |
| 2026-05-06 17:37 | 50.03279 | 8.56811 | 356 ft | 22 kts | 251° |
| 2026-05-06 17:38 | 50.03226 | 8.56588 | 356 ft | 21 kts | 249° |
| 2026-05-06 17:38 | 50.03174 | 8.56374 | 352 ft | 21 kts | 251° |
| 2026-05-06 17:38 | 50.03129 | 8.56159 | 349 ft | 21 kts | 251° |
| 2026-05-06 17:38 | 50.03074 | 8.55945 | 352 ft | 21 kts | 247° |
| 2026-05-06 17:39 | 50.03026 | 8.55737 | 349 ft | 20 kts | 251° |
| 2026-05-06 17:39 | 50.02979 | 8.55546 | 346 ft | 18 kts | 248° |
| 2026-05-06 17:39 | 50.02937 | 8.55368 | 350 ft | 17 kts | 249° |
| 2026-05-06 17:39 | 50.02897 | 8.55205 | 350 ft | 15 kts | 249° |
| 2026-05-06 17:40 | 50.02860 | 8.55052 | 349 ft | 15 kts | 250° |
| 2026-05-06 17:40 | 50.02819 | 8.54882 | 344 ft | 21 kts | 249° |
| 2026-05-06 17:40 | 50.02770 | 8.54658 | 340 ft | 21 kts | 252° |
| 2026-05-06 17:40 | 50.02726 | 8.54445 | 339 ft | 21 kts | 251° |
| 2026-05-06 17:41 | 50.02680 | 8.54225 | 336 ft | 23 kts | 249° |
| 2026-05-06 17:41 | 50.02610 | 8.54001 | 332 ft | 22 kts | 247° |
| 2026-05-06 17:41 | 50.02564 | 8.53784 | 332 ft | 20 kts | 251° |
| 2026-05-06 17:41 | 50.02520 | 8.53592 | 334 ft | 18 kts | 250° |
| 2026-05-06 17:42 | 50.02479 | 8.53412 | 335 ft | 18 kts | 251° |
| 2026-05-06 17:42 | 50.02432 | 8.53213 | 332 ft | 21 kts | 250° |
| 2026-05-06 17:42 | 50.02379 | 8.52996 | 332 ft | 22 kts | 249° |
| 2026-05-06 17:42 | 50.02325 | 8.52773 | 331 ft | 22 kts | 249° |
| 2026-05-06 17:43 | 50.02286 | 8.52629 | 333 ft | 13 kts | 232° |
| 2026-05-06 17:43 | 50.02109 | 8.52609 | 335 ft | 57 kts | 179° |
| 2026-05-06 17:43 | 50.01474 | 8.52612 | 329 ft | 122 kts | 179° |
| 2026-05-06 17:43 | 50.00450 | 8.52617 | 330 ft | 171 kts | 181° |
| 2026-05-06 17:44 | 49.99191 | 8.52669 | 774 ft | 181 kts | 181° |
| 2026-05-06 17:44 | 49.97894 | 8.52711 | 1577 ft | 193 kts | 182° |
| 2026-05-06 17:44 | 49.96512 | 8.52707 | 2418 ft | 204 kts | 184° |
| 2026-05-06 17:44 | 49.95061 | 8.52653 | 3335 ft | 212 kts | 185° |
| 2026-05-06 17:45 | 49.93536 | 8.52590 | 4115 ft | 236 kts | 182° |
| 2026-05-06 17:45 | 49.91818 | 8.52725 | 4057 ft | 244 kts | 178° |
| 2026-05-06 17:45 | 49.90175 | 8.52958 | 4021 ft | 233 kts | 177° |
| 2026-05-06 17:45 | 49.88569 | 8.53183 | 4009 ft | 231 kts | 178° |
| 2026-05-06 17:46 | 49.86976 | 8.53093 | 4010 ft | 231 kts | 194° |
| 2026-05-06 17:46 | 49.85340 | 8.52337 | 4011 ft | 254 kts | 201° |
| 2026-05-06 17:46 | 49.83655 | 8.51421 | 4009 ft | 257 kts | 202° |
| 2026-05-06 17:46 | 49.81975 | 8.50481 | 4008 ft | 257 kts | 202° |
| 2026-05-06 17:47 | 49.80265 | 8.49510 | 4565 ft | 264 kts | 202° |
| 2026-05-06 17:47 | 49.78507 | 8.48481 | 5722 ft | 279 kts | 206° |
| 2026-05-06 17:47 | 49.76914 | 8.46663 | 6666 ft | 295 kts | 231° |
| 2026-05-06 17:47 | 49.75997 | 8.43781 | 7678 ft | 309 kts | 258° |
| 2026-05-06 17:48 | 49.76059 | 8.40403 | 8725 ft | 323 kts | 281° |
| 2026-05-06 17:48 | 49.76596 | 8.36982 | 9786 ft | 331 kts | 283° |
| 2026-05-06 17:48 | 49.77170 | 8.33501 | 10767 ft | 337 kts | 283° |
| 2026-05-06 17:48 | 49.77751 | 8.30011 | 11767 ft | 342 kts | 283° |
| 2026-05-06 17:49 | 49.78352 | 8.26373 | 12478 ft | 359 kts | 283° |
| 2026-05-06 17:49 | 49.78986 | 8.22501 | 12742 ft | 385 kts | 283° |
| 2026-05-06 17:49 | 49.79657 | 8.18353 | 12819 ft | 410 kts | 283° |
| 2026-05-06 17:49 | 49.80345 | 8.14053 | 12811 ft | 403 kts | 283° |
| 2026-05-06 17:50 | 49.80997 | 8.09954 | 12823 ft | 381 kts | 282° |
| 2026-05-06 17:50 | 49.81612 | 8.06074 | 12820 ft | 361 kts | 282° |
| 2026-05-06 17:50 | 49.82202 | 8.02352 | 12823 ft | 353 kts | 282° |
| 2026-05-06 17:50 | 49.82784 | 7.98681 | 12822 ft | 351 kts | 282° |
| 2026-05-06 17:51 | 49.83367 | 7.94976 | 13553 ft | 355 kts | 282° |
| 2026-05-06 17:51 | 49.83955 | 7.91236 | 14544 ft | 360 kts | 282° |
| 2026-05-06 17:51 | 49.84307 | 7.87393 | 15449 ft | 363 kts | 269° |
| 2026-05-06 17:51 | 49.84180 | 7.83460 | 16325 ft | 367 kts | 266° |
| 2026-05-06 17:52 | 49.84017 | 7.79483 | 17173 ft | 372 kts | 265° |
| 2026-05-06 17:52 | 49.83840 | 7.75458 | 18011 ft | 377 kts | 265° |
| 2026-05-06 17:52 | 49.83655 | 7.71386 | 18722 ft | 381 kts | 265° |
| 2026-05-06 17:52 | 49.83467 | 7.67273 | 19422 ft | 385 kts | 265° |
| 2026-05-06 17:53 | 49.83278 | 7.63116 | 20105 ft | 389 kts | 265° |
| 2026-05-06 17:53 | 49.83087 | 7.58919 | 20759 ft | 392 kts | 265° |
| 2026-05-06 17:53 | 49.82896 | 7.54690 | 21366 ft | 396 kts | 265° |
| 2026-05-06 17:53 | 49.82703 | 7.50394 | 21952 ft | 399 kts | 266° |
| 2026-05-06 17:54 | 49.82513 | 7.46107 | 22492 ft | 402 kts | 266° |
| 2026-05-06 17:54 | 49.82319 | 7.41774 | 23008 ft | 405 kts | 265° |
| 2026-05-06 17:54 | 49.82118 | 7.37406 | 23479 ft | 408 kts | 265° |
| 2026-05-06 17:54 | 49.81911 | 7.33000 | 23869 ft | 411 kts | 265° |
| 2026-05-06 17:55 | 49.81702 | 7.28573 | 24253 ft | 414 kts | 265° |
| 2026-05-06 17:55 | 49.81493 | 7.24121 | 24612 ft | 416 kts | 265° |
| 2026-05-06 17:55 | 49.81282 | 7.19637 | 24973 ft | 419 kts | 265° |
| 2026-05-06 17:55 | 49.81071 | 7.15119 | 25331 ft | 421 kts | 265° |
| 2026-05-06 17:56 | 49.80855 | 7.10585 | 25681 ft | 424 kts | 264° |
| 2026-05-06 17:56 | 49.80628 | 7.06025 | 26017 ft | 426 kts | 264° |
| 2026-05-06 17:56 | 49.80394 | 7.01435 | 26373 ft | 428 kts | 264° |
| 2026-05-06 17:56 | 49.80160 | 6.96823 | 26710 ft | 431 kts | 264° |
| 2026-05-06 17:57 | 49.79928 | 6.92192 | 27044 ft | 433 kts | 264° |
| 2026-05-06 17:57 | 49.79696 | 6.87590 | 27358 ft | 435 kts | 264° |
| 2026-05-06 17:57 | 49.79460 | 6.82915 | 27682 ft | 437 kts | 264° |
| 2026-05-06 17:57 | 49.79221 | 6.78206 | 28000 ft | 439 kts | 264° |
| 2026-05-06 17:58 | 49.78979 | 6.73478 | 28306 ft | 441 kts | 264° |
| 2026-05-06 17:58 | 49.78733 | 6.68739 | 28605 ft | 443 kts | 264° |
| 2026-05-06 17:58 | 49.78483 | 6.63974 | 28901 ft | 445 kts | 263° |
| 2026-05-06 17:58 | 49.78231 | 6.59191 | 29168 ft | 447 kts | 263° |
| 2026-05-06 17:59 | 49.77976 | 6.54390 | 29436 ft | 448 kts | 263° |
| 2026-05-06 17:59 | 49.77717 | 6.49579 | 29710 ft | 450 kts | 263° |
| 2026-05-06 17:59 | 49.77455 | 6.44733 | 29843 ft | 454 kts | 263° |
| 2026-05-06 17:59 | 49.77188 | 6.39850 | 29856 ft | 459 kts | 263° |
| 2026-05-06 18:00 | 49.76640 | 6.29937 | 29857 ft | 465 kts | 263° |
| 2026-05-06 18:00 | 49.76084 | 6.19948 | 29861 ft | 466 kts | 263° |
| 2026-05-06 18:01 | 49.75515 | 6.09959 | 29865 ft | 466 kts | 263° |
| 2026-05-06 18:01 | 49.74933 | 5.99978 | 29863 ft | 466 kts | 263° |
| 2026-05-06 18:02 | 49.74334 | 5.90012 | 29862 ft | 466 kts | 261° |
| 2026-05-06 18:02 | 49.72659 | 5.80413 | 29862 ft | 463 kts | 249° |
| 2026-05-06 18:03 | 49.70478 | 5.71051 | 29859 ft | 463 kts | 249° |
| 2026-05-06 18:03 | 49.68299 | 5.61696 | 29858 ft | 463 kts | 249° |
| 2026-05-06 18:04 | 49.66113 | 5.52358 | 29862 ft | 463 kts | 249° |
| 2026-05-06 18:04 | 49.63903 | 5.43021 | 29861 ft | 463 kts | 249° |
| 2026-05-06 18:05 | 49.61712 | 5.33663 | 29865 ft | 464 kts | 249° |
| 2026-05-06 18:05 | 49.59731 | 5.24183 | 29878 ft | 466 kts | 255° |
| 2026-05-06 18:06 | 49.59216 | 5.14244 | 29883 ft | 469 kts | 270° |
| 2026-05-06 18:06 | 49.59325 | 5.04224 | 29883 ft | 469 kts | 269° |
| 2026-05-06 18:07 | 49.59381 | 4.94177 | 29886 ft | 469 kts | 269° |
| 2026-05-06 18:07 | 49.59428 | 4.84119 | 29829 ft | 467 kts | 269° |
| 2026-05-06 18:08 | 49.59453 | 4.79134 | 28811 ft | 465 kts | 269° |
| 2026-05-06 18:08 | 49.59482 | 4.74145 | 27717 ft | 468 kts | 269° |
| 2026-05-06 18:08 | 49.59515 | 4.69125 | 26391 ft | 469 kts | 270° |
| 2026-05-06 18:08 | 49.59538 | 4.65789 | 25712 ft | 470 kts | 270° |
| 2026-05-06 18:09 | 49.59576 | 4.59040 | 25146 ft | 472 kts | 270° |
| 2026-05-06 18:09 | 49.59590 | 4.55682 | 25010 ft | 473 kts | 270° |
| 2026-05-06 18:09 | 49.59606 | 4.50612 | 24857 ft | 473 kts | 270° |
| 2026-05-06 18:09 | 49.59620 | 4.45536 | 24908 ft | 473 kts | 270° |
| 2026-05-06 18:10 | 49.59629 | 4.40465 | 24904 ft | 474 kts | 269° |
| 2026-05-06 18:10 | 49.59327 | 4.35424 | 24690 ft | 470 kts | 258° |
| 2026-05-06 18:10 | 49.58297 | 4.30701 | 23499 ft | 466 kts | 243° |
| 2026-05-06 18:10 | 49.56635 | 4.26420 | 22005 ft | 468 kts | 238° |
| 2026-05-06 18:11 | 49.54921 | 4.22201 | 21181 ft | 459 kts | 238° |
| 2026-05-06 18:11 | 49.53261 | 4.18102 | 20937 ft | 439 kts | 239° |
| 2026-05-06 18:11 | 49.51688 | 4.14179 | 20338 ft | 430 kts | 239° |
| 2026-05-06 18:11 | 49.50132 | 4.10255 | 19640 ft | 425 kts | 239° |
| 2026-05-06 18:12 | 49.48609 | 4.06391 | 19107 ft | 423 kts | 239° |
| 2026-05-06 18:12 | 49.47085 | 4.02523 | 18878 ft | 423 kts | 239° |
| 2026-05-06 18:12 | 49.45526 | 3.98583 | 18634 ft | 422 kts | 239° |
| 2026-05-06 18:12 | 49.42469 | 3.90911 | 18151 ft | 420 kts | 239° |
| 2026-05-06 18:13 | 49.39408 | 3.83273 | 17601 ft | 418 kts | 239° |
| 2026-05-06 18:13 | 49.36353 | 3.75667 | 17085 ft | 415 kts | 239° |
| 2026-05-06 18:13 | 49.33353 | 3.68192 | 16545 ft | 413 kts | 239° |
| 2026-05-06 18:13 | 49.30328 | 3.60671 | 16031 ft | 410 kts | 239° |
| 2026-05-06 18:14 | 49.27356 | 3.53342 | 15524 ft | 407 kts | 238° |
| 2026-05-06 18:14 | 49.24369 | 3.46016 | 15031 ft | 404 kts | 238° |
| 2026-05-06 18:14 | 49.21413 | 3.38751 | 14322 ft | 398 kts | 239° |
| 2026-05-06 18:14 | 49.18511 | 3.31612 | 13026 ft | 392 kts | 239° |
| 2026-05-06 18:15 | 49.15648 | 3.24603 | 11651 ft | 386 kts | 239° |
| 2026-05-06 18:15 | 49.12812 | 3.17692 | 10276 ft | 380 kts | 239° |
| 2026-05-06 18:15 | 49.10044 | 3.10970 | 8846 ft | 373 kts | 239° |
| 2026-05-06 18:15 | 49.07327 | 3.04393 | 7911 ft | 352 kts | 239° |
| 2026-05-06 18:16 | 49.05400 | 2.99603 | 7673 ft | 313 kts | 246° |
| 2026-05-06 18:16 | 49.04774 | 2.96608 | 7538 ft | 284 kts | 262° |
| 2026-05-06 18:16 | 49.04585 | 2.93686 | 7070 ft | 272 kts | 267° |
| 2026-05-06 18:16 | 49.04454 | 2.90810 | 6210 ft | 276 kts | 267° |
| 2026-05-06 18:17 | 49.04311 | 2.87842 | 5348 ft | 279 kts | 267° |
| 2026-05-06 18:17 | 49.04162 | 2.84913 | 4640 ft | 276 kts | 267° |
| 2026-05-06 18:17 | 49.04014 | 2.82012 | 3910 ft | 273 kts | 267° |
| 2026-05-06 18:17 | 49.03869 | 2.79195 | 3477 ft | 257 kts | 267° |
| 2026-05-06 18:18 | 49.03737 | 2.76650 | 3138 ft | 230 kts | 268° |
| 2026-05-06 18:18 | 49.03618 | 2.74335 | 2834 ft | 209 kts | 268° |
| 2026-05-06 18:18 | 49.03507 | 2.72185 | 2563 ft | 198 kts | 269° |
| 2026-05-06 18:18 | 49.03404 | 2.70208 | 2317 ft | 178 kts | 269° |
| 2026-05-06 18:19 | 49.03311 | 2.68431 | 2078 ft | 160 kts | 269° |
| 2026-05-06 18:19 | 49.03227 | 2.66819 | 1856 ft | 147 kts | 270° |
| 2026-05-06 18:19 | 49.03148 | 2.65296 | 1671 ft | 142 kts | 270° |
| 2026-05-06 18:19 | 49.03071 | 2.63811 | 1467 ft | 139 kts | 269° |
| 2026-05-06 18:20 | 49.02996 | 2.62367 | 1275 ft | 138 kts | 269° |
| 2026-05-06 18:20 | 49.02917 | 2.60904 | 1089 ft | 138 kts | 268° |
| 2026-05-06 18:20 | 49.02823 | 2.59441 | 843 ft | 142 kts | 269° |
| 2026-05-06 18:20 | 49.02753 | 2.57847 | 697 ft | 157 kts | 269° |
| 2026-05-06 18:21 | 49.02670 | 2.56178 | 437 ft | 156 kts | 268° |
| 2026-05-06 18:21 | 49.02572 | 2.54599 | 366 ft | 139 kts | 268° |
| 2026-05-06 18:21 | 49.02519 | 2.53461 | 362 ft | 48 kts | 255° |
| 2026-05-06 18:21 | 49.02438 | 2.53271 | 358 ft | 16 kts | 216° |
| 2026-05-06 18:22 | 49.02375 | 2.53168 | 361 ft | 14 kts | 232° |